logo
Search for airport 
image banner adimage banner adimage banner ad
image banner ad

ED1083 - Loffenau

Located in , Germany

ICAO - , IATA -

Data provided by Airmate  

General information

Coordinates: N48°45'30" E8°24'39"
Elevation is 2818 feet MSL.
 
View others Airports in Baden-Württemberg

Operational data

Special qualification required
Current time UTC:
Current local time:
Weather at : EDSB - Karlsruhe/Baden-Baden ( 24 km )
METAR: EDSB 180320Z 33003KT CAVOK 14/14 Q1014
TAF: TAF EDSB 172300Z 1800/1824 VRB03KT 9999 FEW045 TEMPO 1804/1807 2500 BR BECMG 1807/1810 32005KT
View NOTAMs / SUP AIP / TFR affecting this airport [VIEW]
Communications frequencies: [VIEW]

Runways:

Airport contact information

Address: Germany

Satellite view of ED1083